sensor_id;sensor_type;location;lat;lon;timestamp;pressure;altitude;pressure_sealevel;temperature;humidity
9009;BME280;62813;51.424;6.762;2023-07-16T00:00:30;100613.16;;;21.44;66.00
9009;BME280;62813;51.424;6.762;2023-07-16T00:02:56;100617.19;;;21.38;65.86
9009;BME280;62813;51.424;6.762;2023-07-16T00:05:23;100625.47;;;21.45;66.05
9009;BME280;62813;51.424;6.762;2023-07-16T00:07:50;100634.53;;;21.40;66.33
9009;BME280;62813;51.424;6.762;2023-07-16T00:10:17;100646.94;;;21.33;66.38
9009;BME280;62813;51.424;6.762;2023-07-16T00:12:43;100644.13;;;21.29;67.17
9009;BME280;62813;51.424;6.762;2023-07-16T00:15:10;100652.28;;;21.21;67.17
9009;BME280;62813;51.424;6.762;2023-07-16T00:17:37;100659.06;;;21.18;67.11
9009;BME280;62813;51.424;6.762;2023-07-16T00:20:04;100661.63;;;21.14;68.21
9009;BME280;62813;51.424;6.762;2023-07-16T00:22:32;100658.63;;;21.16;68.08
9009;BME280;62813;51.424;6.762;2023-07-16T00:24:59;100660.50;;;21.15;68.16
9009;BME280;62813;51.424;6.762;2023-07-16T00:27:26;100668.25;;;21.29;67.98
9009;BME280;62813;51.424;6.762;2023-07-16T00:29:52;100657.63;;;21.08;68.91
9009;BME280;62813;51.424;6.762;2023-07-16T00:32:19;100648.00;;;21.07;69.15
9009;BME280;62813;51.424;6.762;2023-07-16T00:34:46;100637.50;;;21.14;69.53
9009;BME280;62813;51.424;6.762;2023-07-16T00:37:12;100640.75;;;21.08;69.31
9009;BME280;62813;51.424;6.762;2023-07-16T00:39:39;100636.47;;;20.95;69.64
9009;BME280;62813;51.424;6.762;2023-07-16T00:42:06;100633.00;;;20.82;70.41
9009;BME280;62813;51.424;6.762;2023-07-16T00:44:32;100633.78;;;20.83;69.89
9009;BME280;62813;51.424;6.762;2023-07-16T00:46:59;100640.50;;;20.89;69.65
9009;BME280;62813;51.424;6.762;2023-07-16T00:49:27;100654.66;;;20.89;69.97
9009;BME280;62813;51.424;6.762;2023-07-16T00:51:58;100653.66;;;20.94;69.99
9009;BME280;62813;51.424;6.762;2023-07-16T00:54:25;100668.38;;;20.88;70.35
9009;BME280;62813;51.424;6.762;2023-07-16T00:56:53;100670.75;;;20.89;70.35
9009;BME280;62813;51.424;6.762;2023-07-16T00:59:19;100668.47;;;20.79;70.71
9009;BME280;62813;51.424;6.762;2023-07-16T01:01:46;100659.91;;;20.86;69.69
9009;BME280;62813;51.424;6.762;2023-07-16T01:04:13;100655.78;;;20.88;69.33
9009;BME280;62813;51.424;6.762;2023-07-16T01:06:41;100654.53;;;20.86;69.79
9009;BME280;62813;51.424;6.762;2023-07-16T01:09:16;100665.16;;;20.82;69.75
9009;BME280;62813;51.424;6.762;2023-07-16T01:11:44;100662.66;;;20.77;69.78
9009;BME280;62813;51.424;6.762;2023-07-16T01:14:16;100661.41;;;20.62;70.52
9009;BME280;62813;51.424;6.762;2023-07-16T01:16:44;100659.28;;;20.56;69.97
9009;BME280;62813;51.424;6.762;2023-07-16T01:19:11;100655.47;;;20.57;70.19
9009;BME280;62813;51.424;6.762;2023-07-16T01:24:57;100650.59;;;20.71;69.04
9009;BME280;62813;51.424;6.762;2023-07-16T01:30:08;100662.91;;;20.51;69.27
9009;BME280;62813;51.424;6.762;2023-07-16T01:32:37;100660.47;;;20.46;69.51
9009;BME280;62813;51.424;6.762;2023-07-16T01:35:05;100664.56;;;20.44;69.80
9009;BME280;62813;51.424;6.762;2023-07-16T01:37:32;100667.91;;;20.41;69.51
9009;BME280;62813;51.424;6.762;2023-07-16T01:39:59;100667.50;;;20.51;69.03
9009;BME280;62813;51.424;6.762;2023-07-16T01:42:26;100677.84;;;20.40;69.74
9009;BME280;62813;51.424;6.762;2023-07-16T01:44:53;100678.97;;;20.51;69.18
9009;BME280;62813;51.424;6.762;2023-07-16T01:47:45;100680.69;;;20.56;68.39
9009;BME280;62813;51.424;6.762;2023-07-16T01:50:16;100683.78;;;20.46;69.07
9009;BME280;62813;51.424;6.762;2023-07-16T01:52:43;100687.03;;;20.30;69.74
9009;BME280;62813;51.424;6.762;2023-07-16T01:55:10;100680.75;;;20.47;69.31
9009;BME280;62813;51.424;6.762;2023-07-16T01:57:36;100686.91;;;20.48;69.29
9009;BME280;62813;51.424;6.762;2023-07-16T02:00:03;100689.78;;;20.43;69.13
9009;BME280;62813;51.424;6.762;2023-07-16T02:02:30;100696.50;;;20.49;69.51
9009;BME280;62813;51.424;6.762;2023-07-16T02:04:57;100692.25;;;20.48;68.78
9009;BME280;62813;51.424;6.762;2023-07-16T02:07:24;100694.53;;;20.37;69.48
9009;BME280;62813;51.424;6.762;2023-07-16T02:09:51;100691.34;;;20.44;69.52
9009;BME280;62813;51.424;6.762;2023-07-16T02:12:17;100693.03;;;20.48;69.13
9009;BME280;62813;51.424;6.762;2023-07-16T02:14:44;100684.69;;;20.50;68.15
9009;BME280;62813;51.424;6.762;2023-07-16T02:17:11;100682.09;;;20.41;68.37
9009;BME280;62813;51.424;6.762;2023-07-16T02:19:37;100681.75;;;20.43;68.43
9009;BME280;62813;51.424;6.762;2023-07-16T02:22:04;100691.44;;;20.26;68.24
9009;BME280;62813;51.424;6.762;2023-07-16T02:24:31;100696.16;;;20.29;68.84
9009;BME280;62813;51.424;6.762;2023-07-16T02:26:57;100697.38;;;20.41;67.47
9009;BME280;62813;51.424;6.762;2023-07-16T02:29:24;100701.16;;;20.39;68.28
9009;BME280;62813;51.424;6.762;2023-07-16T02:31:51;100702.03;;;20.44;68.24
9009;BME280;62813;51.424;6.762;2023-07-16T02:34:17;100701.66;;;20.33;68.48
9009;BME280;62813;51.424;6.762;2023-07-16T02:36:44;100712.69;;;20.31;68.32
9009;BME280;62813;51.424;6.762;2023-07-16T02:39:11;100710.94;;;20.35;67.80
9009;BME280;62813;51.424;6.762;2023-07-16T02:41:37;100718.47;;;20.33;67.82
9009;BME280;62813;51.424;6.762;2023-07-16T02:44:05;100714.06;;;20.37;67.90
9009;BME280;62813;51.424;6.762;2023-07-16T02:46:32;100711.28;;;20.25;67.75
9009;BME280;62813;51.424;6.762;2023-07-16T02:48:59;100721.97;;;20.34;67.95
9009;BME280;62813;51.424;6.762;2023-07-16T02:51:26;100725.41;;;20.34;67.55
9009;BME280;62813;51.424;6.762;2023-07-16T02:53:52;100729.84;;;20.30;67.72
9009;BME280;62813;51.424;6.762;2023-07-16T02:56:19;100726.19;;;20.14;67.25
9009;BME280;62813;51.424;6.762;2023-07-16T02:58:46;100730.75;;;20.14;67.98
9009;BME280;62813;51.424;6.762;2023-07-16T03:01:12;100730.59;;;20.10;68.52
9009;BME280;62813;51.424;6.762;2023-07-16T03:03:39;100730.44;;;19.86;68.85
9009;BME280;62813;51.424;6.762;2023-07-16T03:06:06;100728.59;;;20.07;68.38
9009;BME280;62813;51.424;6.762;2023-07-16T03:08:34;100735.78;;;20.15;67.84
9009;BME280;62813;51.424;6.762;2023-07-16T03:11:01;100744.97;;;20.26;67.43
9009;BME280;62813;51.424;6.762;2023-07-16T03:13:27;100735.94;;;20.10;67.05
9009;BME280;62813;51.424;6.762;2023-07-16T03:15:54;100746.53;;;20.07;68.19
9009;BME280;62813;51.424;6.762;2023-07-16T03:18:21;100739.78;;;20.00;67.57
9009;BME280;62813;51.424;6.762;2023-07-16T03:20:47;100749.47;;;19.84;67.75
9009;BME280;62813;51.424;6.762;2023-07-16T03:23:14;100752.47;;;19.83;66.53
9009;BME280;62813;51.424;6.762;2023-07-16T03:25:41;100750.97;;;19.73;68.00
9009;BME280;62813;51.424;6.762;2023-07-16T03:28:07;100754.69;;;19.81;67.23
9009;BME280;62813;51.424;6.762;2023-07-16T03:30:34;100759.31;;;19.72;66.72
9009;BME280;62813;51.424;6.762;2023-07-16T03:33:01;100755.75;;;19.42;66.78
9009;BME280;62813;51.424;6.762;2023-07-16T03:35:27;100753.72;;;19.56;66.15
9009;BME280;62813;51.424;6.762;2023-07-16T03:37:54;100760.13;;;19.63;66.23
9009;BME280;62813;51.424;6.762;2023-07-16T03:40:24;100756.69;;;19.46;65.19
9009;BME280;62813;51.424;6.762;2023-07-16T03:42:52;100776.81;;;19.43;63.78
9009;BME280;62813;51.424;6.762;2023-07-16T03:45:19;100778.41;;;19.44;63.55
9009;BME280;62813;51.424;6.762;2023-07-16T03:47:46;100780.56;;;19.59;62.63
9009;BME280;62813;51.424;6.762;2023-07-16T03:50:12;100792.38;;;19.41;63.98
9009;BME280;62813;51.424;6.762;2023-07-16T03:52:39;100795.06;;;19.41;62.86
9009;BME280;62813;51.424;6.762;2023-07-16T03:55:06;100796.94;;;19.41;62.36
9009;BME280;62813;51.424;6.762;2023-07-16T03:57:33;100810.19;;;19.37;62.74
9009;BME280;62813;51.424;6.762;2023-07-16T04:00:00;100805.13;;;19.53;62.93
9009;BME280;62813;51.424;6.762;2023-07-16T04:02:27;100808.09;;;19.60;63.01
9009;BME280;62813;51.424;6.762;2023-07-16T04:04:54;100811.25;;;19.53;62.51
9009;BME280;62813;51.424;6.762;2023-07-16T04:07:20;100811.28;;;19.36;62.74
9009;BME280;62813;51.424;6.762;2023-07-16T04:09:47;100820.88;;;19.37;62.66
9009;BME280;62813;51.424;6.762;2023-07-16T04:12:14;100813.63;;;19.38;63.03
9009;BME280;62813;51.424;6.762;2023-07-16T04:14:40;100818.31;;;19.41;62.98
9009;BME280;62813;51.424;6.762;2023-07-16T04:17:07;100821.78;;;19.41;63.37
9009;BME280;62813;51.424;6.762;2023-07-16T04:19:34;100824.63;;;19.53;62.91
9009;BME280;62813;51.424;6.762;2023-07-16T04:22:00;100830.88;;;19.66;61.39
9009;BME280;62813;51.424;6.762;2023-07-16T04:24:27;100828.19;;;19.66;61.08
9009;BME280;62813;51.424;6.762;2023-07-16T04:26:54;100829.47;;;19.60;60.34
9009;BME280;62813;51.424;6.762;2023-07-16T04:29:24;100827.25;;;19.71;60.02
9009;BME280;62813;51.424;6.762;2023-07-16T04:31:50;100834.84;;;19.60;60.26
9009;BME280;62813;51.424;6.762;2023-07-16T04:34:17;100834.00;;;19.77;59.11
9009;BME280;62813;51.424;6.762;2023-07-16T04:36:44;100831.81;;;19.70;59.14
9009;BME280;62813;51.424;6.762;2023-07-16T04:39:11;100837.19;;;19.61;59.77
9009;BME280;62813;51.424;6.762;2023-07-16T04:41:37;100844.25;;;19.66;59.99
9009;BME280;62813;51.424;6.762;2023-07-16T04:44:04;100840.72;;;19.83;59.23
9009;BME280;62813;51.424;6.762;2023-07-16T04:46:31;100830.50;;;19.85;59.32
9009;BME280;62813;51.424;6.762;2023-07-16T04:48:58;100841.03;;;19.90;59.44
9009;BME280;62813;51.424;6.762;2023-07-16T04:51:25;100850.19;;;19.80;59.08
9009;BME280;62813;51.424;6.762;2023-07-16T04:53:51;100845.44;;;19.86;58.58
9009;BME280;62813;51.424;6.762;2023-07-16T04:56:18;100853.59;;;19.98;57.82
9009;BME280;62813;51.424;6.762;2023-07-16T04:58:45;100850.72;;;20.03;57.41
9009;BME280;62813;51.424;6.762;2023-07-16T05:01:12;100852.81;;;19.97;57.63
9009;BME280;62813;51.424;6.762;2023-07-16T05:03:39;100855.94;;;19.91;57.89
9009;BME280;62813;51.424;6.762;2023-07-16T05:06:06;100862.56;;;19.93;57.62
9009;BME280;62813;51.424;6.762;2023-07-16T05:08:32;100872.69;;;19.79;57.77
9009;BME280;62813;51.424;6.762;2023-07-16T05:10:59;100868.25;;;19.83;57.05
9009;BME280;62813;51.424;6.762;2023-07-16T05:13:26;100863.97;;;19.91;57.54
9009;BME280;62813;51.424;6.762;2023-07-16T05:15:52;100873.09;;;19.98;57.65
9009;BME280;62813;51.424;6.762;2023-07-16T05:18:19;100870.13;;;19.91;57.81
9009;BME280;62813;51.424;6.762;2023-07-16T05:20:48;100871.53;;;19.97;58.06
9009;BME280;62813;51.424;6.762;2023-07-16T05:23:15;100867.75;;;19.98;57.99
9009;BME280;62813;51.424;6.762;2023-07-16T05:25:46;100878.69;;;20.14;57.93
9009;BME280;62813;51.424;6.762;2023-07-16T05:28:18;100876.34;;;20.13;58.14
9009;BME280;62813;51.424;6.762;2023-07-16T05:30:45;100884.06;;;20.14;58.83
9009;BME280;62813;51.424;6.762;2023-07-16T05:33:12;100882.63;;;20.08;57.11
9009;BME280;62813;51.424;6.762;2023-07-16T05:35:39;100889.00;;;19.95;57.78
9009;BME280;62813;51.424;6.762;2023-07-16T05:38:06;100885.38;;;19.91;57.07
9009;BME280;62813;51.424;6.762;2023-07-16T05:40:32;100897.22;;;19.90;57.13
9009;BME280;62813;51.424;6.762;2023-07-16T05:42:59;100903.47;;;19.94;56.82
9009;BME280;62813;51.424;6.762;2023-07-16T05:45:26;100895.19;;;20.16;56.21
9009;BME280;62813;51.424;6.762;2023-07-16T05:47:52;100898.38;;;20.10;56.65
9009;BME280;62813;51.424;6.762;2023-07-16T05:50:19;100904.78;;;20.17;56.10
9009;BME280;62813;51.424;6.762;2023-07-16T05:52:46;100902.50;;;20.07;55.56
9009;BME280;62813;51.424;6.762;2023-07-16T05:55:14;100903.72;;;20.10;56.12
9009;BME280;62813;51.424;6.762;2023-07-16T05:57:41;100906.88;;;20.12;56.06
9009;BME280;62813;51.424;6.762;2023-07-16T06:00:09;100902.56;;;19.90;55.70
9009;BME280;62813;51.424;6.762;2023-07-16T06:02:35;100904.88;;;19.91;55.76
9009;BME280;62813;51.424;6.762;2023-07-16T06:05:02;100895.78;;;19.84;55.80
9009;BME280;62813;51.424;6.762;2023-07-16T06:07:29;100897.94;;;19.99;56.26
9009;BME280;62813;51.424;6.762;2023-07-16T06:09:56;100897.75;;;20.13;55.76
9009;BME280;62813;51.424;6.762;2023-07-16T06:12:22;100910.19;;;20.09;55.35
9009;BME280;62813;51.424;6.762;2023-07-16T06:14:49;100898.72;;;19.99;55.48
9009;BME280;62813;51.424;6.762;2023-07-16T06:17:16;100905.00;;;20.12;54.75
9009;BME280;62813;51.424;6.762;2023-07-16T06:19:43;100906.38;;;20.18;54.74
9009;BME280;62813;51.424;6.762;2023-07-16T06:22:09;100912.16;;;20.29;55.12
9009;BME280;62813;51.424;6.762;2023-07-16T06:24:36;100919.59;;;20.23;54.65
9009;BME280;62813;51.424;6.762;2023-07-16T06:27:03;100922.44;;;20.18;54.80
9009;BME280;62813;51.424;6.762;2023-07-16T06:29:29;100925.81;;;19.98;53.99
9009;BME280;62813;51.424;6.762;2023-07-16T06:31:57;100925.34;;;19.96;54.45
9009;BME280;62813;51.424;6.762;2023-07-16T06:34:25;100931.78;;;20.03;54.98
9009;BME280;62813;51.424;6.762;2023-07-16T06:36:52;100935.06;;;20.09;54.90
9009;BME280;62813;51.424;6.762;2023-07-16T06:39:18;100940.38;;;20.18;54.66
9009;BME280;62813;51.424;6.762;2023-07-16T06:41:45;100949.25;;;20.01;54.34
9009;BME280;62813;51.424;6.762;2023-07-16T06:44:12;100938.69;;;20.05;53.73
9009;BME280;62813;51.424;6.762;2023-07-16T06:46:38;100956.47;;;20.00;53.90
9009;BME280;62813;51.424;6.762;2023-07-16T06:49:06;100955.25;;;19.98;54.40
9009;BME280;62813;51.424;6.762;2023-07-16T06:51:33;100948.31;;;19.97;54.42
9009;BME280;62813;51.424;6.762;2023-07-16T06:54:00;100954.28;;;19.94;54.07
9009;BME280;62813;51.424;6.762;2023-07-16T06:56:27;100952.09;;;19.96;53.46
9009;BME280;62813;51.424;6.762;2023-07-16T06:58:53;100949.56;;;19.91;53.69
9009;BME280;62813;51.424;6.762;2023-07-16T07:01:20;100948.00;;;19.98;53.66
9009;BME280;62813;51.424;6.762;2023-07-16T07:03:47;100950.50;;;20.03;53.33
9009;BME280;62813;51.424;6.762;2023-07-16T07:06:14;100943.63;;;19.85;53.27
9009;BME280;62813;51.424;6.762;2023-07-16T07:08:41;100948.63;;;19.95;53.51
9009;BME280;62813;51.424;6.762;2023-07-16T07:11:08;100935.72;;;20.06;53.58
9009;BME280;62813;51.424;6.762;2023-07-16T07:13:34;100945.59;;;20.14;52.62
9009;BME280;62813;51.424;6.762;2023-07-16T07:16:01;100949.97;;;20.19;53.18
9009;BME280;62813;51.424;6.762;2023-07-16T07:18:28;100944.13;;;20.34;52.15
9009;BME280;62813;51.424;6.762;2023-07-16T07:20:54;100952.41;;;20.50;52.36
9009;BME280;62813;51.424;6.762;2023-07-16T07:23:21;100962.78;;;20.51;51.88
9009;BME280;62813;51.424;6.762;2023-07-16T07:25:51;100957.06;;;20.61;52.04
9009;BME280;62813;51.424;6.762;2023-07-16T07:28:19;100965.13;;;20.53;51.54
9009;BME280;62813;51.424;6.762;2023-07-16T07:30:46;100962.00;;;20.51;51.50
9009;BME280;62813;51.424;6.762;2023-07-16T07:33:13;100958.38;;;20.55;51.64
9009;BME280;62813;51.424;6.762;2023-07-16T07:35:39;100950.94;;;20.61;51.96
9009;BME280;62813;51.424;6.762;2023-07-16T07:38:06;100962.63;;;20.56;51.10
9009;BME280;62813;51.424;6.762;2023-07-16T07:40:33;100961.63;;;20.61;51.40
9009;BME280;62813;51.424;6.762;2023-07-16T07:42:59;100961.22;;;20.50;51.51
9009;BME280;62813;51.424;6.762;2023-07-16T07:45:26;100948.91;;;20.58;51.14
9009;BME280;62813;51.424;6.762;2023-07-16T07:47:53;100955.22;;;20.53;51.13
9009;BME280;62813;51.424;6.762;2023-07-16T07:50:20;100958.63;;;20.62;50.66
9009;BME280;62813;51.424;6.762;2023-07-16T07:52:47;100959.06;;;20.73;50.63
9009;BME280;62813;51.424;6.762;2023-07-16T07:55:13;100957.75;;;20.79;50.43
9009;BME280;62813;51.424;6.762;2023-07-16T07:57:40;100953.47;;;20.57;50.28
9009;BME280;62813;51.424;6.762;2023-07-16T08:00:07;100970.09;;;20.71;50.40
9009;BME280;62813;51.424;6.762;2023-07-16T08:02:38;100962.53;;;20.73;50.87
9009;BME280;62813;51.424;6.762;2023-07-16T08:05:06;100962.59;;;20.86;50.11
9009;BME280;62813;51.424;6.762;2023-07-16T08:07:33;100954.44;;;21.03;50.42
9009;BME280;62813;51.424;6.762;2023-07-16T08:10:00;100960.28;;;21.05;50.56
9009;BME280;62813;51.424;6.762;2023-07-16T08:12:26;100971.16;;;21.08;50.57
9009;BME280;62813;51.424;6.762;2023-07-16T08:14:53;100960.03;;;21.19;49.73
9009;BME280;62813;51.424;6.762;2023-07-16T08:17:20;100971.22;;;21.21;49.47
9009;BME280;62813;51.424;6.762;2023-07-16T08:19:49;100971.00;;;21.34;49.57
9009;BME280;62813;51.424;6.762;2023-07-16T08:22:16;100978.59;;;21.44;49.47
9009;BME280;62813;51.424;6.762;2023-07-16T08:24:43;100975.13;;;21.44;50.01
9009;BME280;62813;51.424;6.762;2023-07-16T08:27:09;100972.75;;;21.30;49.43
9009;BME280;62813;51.424;6.762;2023-07-16T08:29:36;100981.16;;;21.20;48.34
9009;BME280;62813;51.424;6.762;2023-07-16T08:32:03;100981.88;;;21.08;48.76
9009;BME280;62813;51.424;6.762;2023-07-16T08:34:30;100984.59;;;21.00;49.25
9009;BME280;62813;51.424;6.762;2023-07-16T08:36:56;100984.19;;;20.89;49.80
9009;BME280;62813;51.424;6.762;2023-07-16T08:39:23;100993.13;;;20.93;49.68
9009;BME280;62813;51.424;6.762;2023-07-16T08:41:52;100986.53;;;20.91;50.04
9009;BME280;62813;51.424;6.762;2023-07-16T08:44:20;100989.75;;;21.05;49.84
9009;BME280;62813;51.424;6.762;2023-07-16T08:46:50;100985.81;;;21.32;49.54
9009;BME280;62813;51.424;6.762;2023-07-16T08:49:17;100993.06;;;21.31;49.18
9009;BME280;62813;51.424;6.762;2023-07-16T08:51:48;100989.06;;;21.17;48.82
9009;BME280;62813;51.424;6.762;2023-07-16T08:54:15;100989.22;;;21.11;48.86
9009;BME280;62813;51.424;6.762;2023-07-16T08:56:44;101004.19;;;20.92;48.45
9009;BME280;62813;51.424;6.762;2023-07-16T08:59:10;100996.69;;;21.06;48.30
9009;BME280;62813;51.424;6.762;2023-07-16T09:01:38;100991.97;;;21.32;48.82
9009;BME280;62813;51.424;6.762;2023-07-16T09:04:04;101003.53;;;21.45;47.92
9009;BME280;62813;51.424;6.762;2023-07-16T09:06:31;101005.72;;;21.51;47.76
9009;BME280;62813;51.424;6.762;2023-07-16T09:08:58;101011.19;;;21.55;47.49
9009;BME280;62813;51.424;6.762;2023-07-16T09:11:25;101004.50;;;21.61;48.14
9009;BME280;62813;51.424;6.762;2023-07-16T09:13:51;101003.38;;;21.62;48.30
9009;BME280;62813;51.424;6.762;2023-07-16T09:16:18;101010.25;;;21.72;48.81
9009;BME280;62813;51.424;6.762;2023-07-16T09:18:45;101010.06;;;21.77;47.46
9009;BME280;62813;51.424;6.762;2023-07-16T09:21:12;101004.50;;;21.61;46.72
9009;BME280;62813;51.424;6.762;2023-07-16T09:23:41;101015.81;;;21.67;46.86
9009;BME280;62813;51.424;6.762;2023-07-16T09:26:08;101010.84;;;21.57;46.82
9009;BME280;62813;51.424;6.762;2023-07-16T09:28:34;101009.75;;;21.58;47.55
9009;BME280;62813;51.424;6.762;2023-07-16T09:31:05;101010.41;;;21.55;47.35
9009;BME280;62813;51.424;6.762;2023-07-16T09:33:33;101011.75;;;21.61;47.98
9009;BME280;62813;51.424;6.762;2023-07-16T09:36:00;101015.69;;;21.63;47.88
9009;BME280;62813;51.424;6.762;2023-07-16T09:38:29;101021.66;;;21.69;47.32
9009;BME280;62813;51.424;6.762;2023-07-16T09:40:56;101022.47;;;21.61;47.22
9009;BME280;62813;51.424;6.762;2023-07-16T09:43:23;101025.56;;;21.71;46.85
9009;BME280;62813;51.424;6.762;2023-07-16T09:45:50;101024.50;;;21.84;47.73
9009;BME280;62813;51.424;6.762;2023-07-16T09:48:17;101024.88;;;21.95;47.21
9009;BME280;62813;51.424;6.762;2023-07-16T09:50:52;101016.78;;;21.83;46.45
9009;BME280;62813;51.424;6.762;2023-07-16T09:53:23;101010.50;;;22.00;46.67
9009;BME280;62813;51.424;6.762;2023-07-16T09:55:54;101027.22;;;21.97;47.21
9009;BME280;62813;51.424;6.762;2023-07-16T09:58:22;101022.41;;;22.11;47.00
9009;BME280;62813;51.424;6.762;2023-07-16T10:00:50;101033.22;;;22.02;47.21
9009;BME280;62813;51.424;6.762;2023-07-16T10:03:17;101037.03;;;22.13;46.44
9009;BME280;62813;51.424;6.762;2023-07-16T10:05:44;101034.41;;;22.25;47.32
9009;BME280;62813;51.424;6.762;2023-07-16T10:08:19;101022.31;;;22.32;46.20
9009;BME280;62813;51.424;6.762;2023-07-16T10:10:54;101025.94;;;22.03;45.99
9009;BME280;62813;51.424;6.762;2023-07-16T10:13:23;101038.28;;;22.16;46.35
9009;BME280;62813;51.424;6.762;2023-07-16T10:15:55;101036.38;;;22.16;45.67
9009;BME280;62813;51.424;6.762;2023-07-16T10:18:32;101037.44;;;22.36;46.68
9009;BME280;62813;51.424;6.762;2023-07-16T10:21:08;101042.16;;;22.51;46.09
9009;BME280;62813;51.424;6.762;2023-07-16T10:23:39;101036.66;;;22.48;46.47
9009;BME280;62813;51.424;6.762;2023-07-16T10:26:07;101041.84;;;22.53;46.93
9009;BME280;62813;51.424;6.762;2023-07-16T10:28:36;101046.94;;;22.79;45.35
9009;BME280;62813;51.424;6.762;2023-07-16T10:31:05;101042.34;;;22.79;44.81
9009;BME280;62813;51.424;6.762;2023-07-16T10:33:34;101047.31;;;22.69;44.49
9009;BME280;62813;51.424;6.762;2023-07-16T10:36:04;101053.94;;;22.71;45.79
9009;BME280;62813;51.424;6.762;2023-07-16T10:38:40;101034.44;;;22.50;45.37
9009;BME280;62813;51.424;6.762;2023-07-16T10:41:07;101051.84;;;22.32;45.25
9009;BME280;62813;51.424;6.762;2023-07-16T10:43:34;101056.38;;;22.52;45.42
9009;BME280;62813;51.424;6.762;2023-07-16T10:46:02;101051.78;;;22.52;45.63
9009;BME280;62813;51.424;6.762;2023-07-16T10:48:29;101058.25;;;22.39;46.13
9009;BME280;62813;51.424;6.762;2023-07-16T10:50:56;101050.97;;;22.27;45.37
9009;BME280;62813;51.424;6.762;2023-07-16T10:53:23;101057.78;;;22.25;45.86
9009;BME280;62813;51.424;6.762;2023-07-16T10:55:49;101054.16;;;22.21;45.75
9009;BME280;62813;51.424;6.762;2023-07-16T10:58:16;101055.09;;;22.25;46.20
9009;BME280;62813;51.424;6.762;2023-07-16T11:00:44;101059.34;;;22.38;46.10
9009;BME280;62813;51.424;6.762;2023-07-16T11:03:15;101058.47;;;22.34;44.69
9009;BME280;62813;51.424;6.762;2023-07-16T11:05:45;101052.31;;;22.34;45.56
9009;BME280;62813;51.424;6.762;2023-07-16T11:08:21;101055.41;;;22.23;44.30
9009;BME280;62813;51.424;6.762;2023-07-16T11:10:57;101051.66;;;22.37;44.72
9009;BME280;62813;51.424;6.762;2023-07-16T11:13:28;101065.50;;;22.26;44.63
9009;BME280;62813;51.424;6.762;2023-07-16T11:15:55;101063.69;;;22.31;44.18
9009;BME280;62813;51.424;6.762;2023-07-16T11:18:26;101061.25;;;22.25;44.71
9009;BME280;62813;51.424;6.762;2023-07-16T11:20:53;101057.13;;;22.28;44.53
9009;BME280;62813;51.424;6.762;2023-07-16T11:23:19;101055.75;;;22.22;44.00
9009;BME280;62813;51.424;6.762;2023-07-16T11:25:49;101062.56;;;22.19;43.97
9009;BME280;62813;51.424;6.762;2023-07-16T11:28:15;101064.72;;;22.26;44.30
9009;BME280;62813;51.424;6.762;2023-07-16T11:30:42;101062.66;;;22.11;44.89
9009;BME280;62813;51.424;6.762;2023-07-16T11:33:10;101076.50;;;22.13;44.69
9009;BME280;62813;51.424;6.762;2023-07-16T11:35:37;101068.59;;;22.16;44.07
9009;BME280;62813;51.424;6.762;2023-07-16T11:38:05;101068.50;;;22.25;44.37
9009;BME280;62813;51.424;6.762;2023-07-16T11:40:35;101072.78;;;22.26;45.36
9009;BME280;62813;51.424;6.762;2023-07-16T11:43:12;101073.88;;;22.25;43.99
9009;BME280;62813;51.424;6.762;2023-07-16T11:45:39;101073.91;;;22.37;44.19
9009;BME280;62813;51.424;6.762;2023-07-16T11:48:06;101078.84;;;22.47;44.38
9009;BME280;62813;51.424;6.762;2023-07-16T11:50:33;101073.72;;;22.54;44.12
9009;BME280;62813;51.424;6.762;2023-07-16T11:53:00;101083.69;;;22.54;44.00
9009;BME280;62813;51.424;6.762;2023-07-16T11:55:30;101074.41;;;22.51;44.32
9009;BME280;62813;51.424;6.762;2023-07-16T11:57:57;101076.28;;;22.51;44.44
9009;BME280;62813;51.424;6.762;2023-07-16T12:00:26;101076.53;;;22.58;43.78
9009;BME280;62813;51.424;6.762;2023-07-16T12:02:53;101077.19;;;22.55;43.86
9009;BME280;62813;51.424;6.762;2023-07-16T12:05:21;101083.34;;;22.55;44.46
9009;BME280;62813;51.424;6.762;2023-07-16T12:08:07;101076.75;;;22.53;44.23
9009;BME280;62813;51.424;6.762;2023-07-16T12:10:41;101086.72;;;22.52;45.04
9009;BME280;62813;51.424;6.762;2023-07-16T12:13:08;101093.00;;;22.69;45.13
9009;BME280;62813;51.424;6.762;2023-07-16T12:15:34;101084.16;;;22.68;44.84
9009;BME280;62813;51.424;6.762;2023-07-16T12:18:01;101087.50;;;22.65;43.95
9009;BME280;62813;51.424;6.762;2023-07-16T12:20:28;101081.41;;;22.77;44.73
9009;BME280;62813;51.424;6.762;2023-07-16T12:22:55;101078.78;;;22.68;44.36
9009;BME280;62813;51.424;6.762;2023-07-16T12:25:22;101085.59;;;22.65;44.12
9009;BME280;62813;51.424;6.762;2023-07-16T12:27:48;101094.56;;;22.70;43.99
9009;BME280;62813;51.424;6.762;2023-07-16T12:30:18;101091.56;;;22.71;44.03
9009;BME280;62813;51.424;6.762;2023-07-16T12:32:44;101082.66;;;22.79;43.85
9009;BME280;62813;51.424;6.762;2023-07-16T12:35:11;101093.72;;;22.78;43.76
9009;BME280;62813;51.424;6.762;2023-07-16T12:37:38;101096.63;;;22.85;43.79
9009;BME280;62813;51.424;6.762;2023-07-16T12:40:06;101101.91;;;22.93;44.28
9009;BME280;62813;51.424;6.762;2023-07-16T12:42:33;101094.97;;;23.05;43.19
9009;BME280;62813;51.424;6.762;2023-07-16T12:45:01;101105.81;;;23.08;43.63
9009;BME280;62813;51.424;6.762;2023-07-16T12:47:28;101104.34;;;22.98;43.80
9009;BME280;62813;51.424;6.762;2023-07-16T12:49:55;101118.38;;;23.04;44.07
9009;BME280;62813;51.424;6.762;2023-07-16T12:52:21;101103.13;;;23.08;43.55
9009;BME280;62813;51.424;6.762;2023-07-16T12:54:48;101115.91;;;22.99;42.94
9009;BME280;62813;51.424;6.762;2023-07-16T12:57:17;101118.50;;;23.20;43.85
9009;BME280;62813;51.424;6.762;2023-07-16T12:59:44;101112.66;;;23.30;43.37
9009;BME280;62813;51.424;6.762;2023-07-16T13:02:10;101110.41;;;23.32;42.94
9009;BME280;62813;51.424;6.762;2023-07-16T13:04:37;101104.47;;;23.38;43.35
9009;BME280;62813;51.424;6.762;2023-07-16T13:07:04;101109.84;;;23.38;43.48